Time;durP1;ratioP1;P1;durP2;ratioP2;P2;SDS_P1;SDS_P2;PMS_P1;PMS_P2;Temp;Humidity;BMP_temperature;BMP_pressure;BME280_temperature;BME280_humidity;BME280_pressure;Samples;Min_cycle;Max_cycle;Signal;HPM_P1;HPM_P2
2022/08/02 00:00:37;;;;;;;1.00;1.00;;;;;;;;;;5015517;28;20057;-86
2022/08/02 00:03:04;;;;;;;1.13;1.00;;;;;;;;;;5014297;28;20050;-85
2022/08/02 00:05:31;;;;;;;1.00;1.00;;;;;;;;;;5016208;28;20050;-87
2022/08/02 00:07:59;;;;;;;2.47;1.20;;;;;;;;;;5013973;28;20415;-86
2022/08/02 00:10:26;;;;;;;1.10;1.10;;;;;;;;;;5013744;28;20046;-87
2022/08/02 00:12:53;;;;;;;2.53;1.02;;;;;;;;;;5014051;28;20046;-86
2022/08/02 00:15:21;;;;;;;1.20;1.05;;;;;;;;;;5014146;28;20430;-87
2022/08/02 00:17:48;;;;;;;1.23;0.90;;;;;;;;;;5014037;28;20052;-88
2022/08/02 00:20:15;;;;;;;4.85;0.90;;;;;;;;;;5014160;28;20132;-88
2022/08/02 00:22:42;;;;;;;2.22;0.95;;;;;;;;;;5013187;28;20085;-88
2022/08/02 00:25:10;;;;;;;1.30;1.20;;;;;;;;;;5013966;28;20077;-87
2022/08/02 00:27:37;;;;;;;2.15;1.20;;;;;;;;;;5013972;28;20443;-87
2022/08/02 00:30:04;;;;;;;1.55;1.10;;;;;;;;;;5013765;28;20450;-88
2022/08/02 00:32:31;;;;;;;1.45;1.00;;;;;;;;;;5014013;28;20104;-87
2022/08/02 00:34:59;;;;;;;0.93;0.93;;;;;;;;;;5013633;28;20061;-87
2022/08/02 00:37:26;;;;;;;1.10;1.00;;;;;;;;;;5014104;28;20092;-88
2022/08/02 00:39:53;;;;;;;1.13;1.13;;;;;;;;;;5013626;28;20050;-88
2022/08/02 00:42:20;;;;;;;1.10;1.10;;;;;;;;;;5013747;28;20126;-88
2022/08/02 00:44:47;;;;;;;1.33;1.23;;;;;;;;;;5013583;28;20050;-87
2022/08/02 00:47:14;;;;;;;0.90;0.90;;;;;;;;;;5013742;28;20454;-88
2022/08/02 00:49:45;;;;;;;2.88;1.30;;;;;;;;;;5013927;28;20045;-87
2022/08/02 00:52:13;;;;;;;2.35;1.10;;;;;;;;;;5013210;28;20041;-88
2022/08/02 00:54:40;;;;;;;1.35;1.20;;;;;;;;;;5013449;28;20124;-88
2022/08/02 00:57:08;;;;;;;3.70;1.20;;;;;;;;;;5013463;28;20053;-87
2022/08/02 00:59:35;;;;;;;1.77;1.60;;;;;;;;;;5013483;28;20073;-87
2022/08/02 01:02:02;;;;;;;1.50;1.30;;;;;;;;;;5012952;28;20081;-87
2022/08/02 01:04:29;;;;;;;1.20;1.10;;;;;;;;;;5013392;28;20129;-88
2022/08/02 01:06:59;;;;;;;1.00;1.00;;;;;;;;;;5012862;28;20046;-87
2022/08/02 01:09:26;;;;;;;1.20;1.20;;;;;;;;;;5012942;28;20050;-86
2022/08/02 01:11:53;;;;;;;1.60;1.50;;;;;;;;;;5012928;28;20042;-87
2022/08/02 01:14:23;;;;;;;1.90;1.60;;;;;;;;;;5014218;28;20480;-87
2022/08/02 01:16:53;;;;;;;1.30;1.30;;;;;;;;;;5013065;28;20046;-86
2022/08/02 01:19:20;;;;;;;1.60;1.50;;;;;;;;;;5012939;28;20081;-87
2022/08/02 01:21:57;;;;;;;1.33;1.30;;;;;;;;;;5013109;28;20486;-87
2022/08/02 01:24:33;;;;;;;2.20;1.20;;;;;;;;;;5012883;28;20078;-87
2022/08/02 01:27:19;;;;;;;1.10;1.10;;;;;;;;;;5012658;28;20188;-88
2022/08/02 01:29:50;;;;;;;2.05;1.55;;;;;;;;;;5012704;28;20570;-87
2022/08/02 01:32:21;;;;;;;1.73;1.63;;;;;;;;;;5012834;28;20208;-87
2022/08/02 01:34:55;;;;;;;1.40;1.30;;;;;;;;;;5013920;28;20069;-87
2022/08/02 01:37:29;;;;;;;1.30;1.30;;;;;;;;;;5012723;28;20137;-87
2022/08/02 01:40:07;;;;;;;2.15;1.65;;;;;;;;;;5013744;28;20077;-87
2022/08/02 01:42:35;;;;;;;1.60;1.50;;;;;;;;;;5012627;28;20077;-88
2022/08/02 01:45:03;;;;;;;2.60;1.42;;;;;;;;;;5012465;28;20450;-87
2022/08/02 01:47:34;;;;;;;2.53;1.85;;;;;;;;;;5016149;28;20145;-85
2022/08/02 01:50:02;;;;;;;2.05;1.95;;;;;;;;;;5015247;28;20462;-85
2022/08/02 01:52:30;;;;;;;2.13;1.50;;;;;;;;;;5015969;28;20419;-86
2022/08/02 01:55:02;;;;;;;1.88;1.77;;;;;;;;;;5015949;28;20077;-85
2022/08/02 01:57:33;;;;;;;3.03;2.10;;;;;;;;;;5015596;28;20133;-87
2022/08/02 02:00:09;;;;;;;1.70;1.70;;;;;;;;;;5016733;28;20054;-86
2022/08/02 02:02:39;;;;;;;1.90;1.80;;;;;;;;;;5016829;28;20049;-86
2022/08/02 02:05:07;;;;;;;2.53;1.77;;;;;;;;;;5016822;28;20487;-87
2022/08/02 02:07:35;;;;;;;1.88;1.77;;;;;;;;;;5016310;28;20100;-86
2022/08/02 02:10:04;;;;;;;1.65;1.65;;;;;;;;;;5014180;28;20458;-85
2022/08/02 02:12:33;;;;;;;2.20;2.00;;;;;;;;;;5014394;28;20062;-84
2022/08/02 02:15:01;;;;;;;1.98;1.88;;;;;;;;;;5014584;28;20541;-84
2022/08/02 02:17:30;;;;;;;2.45;2.28;;;;;;;;;;5015206;28;20042;-85
2022/08/02 02:20:18;;;;;;;2.40;2.28;;;;;;;;;;5015112;28;20534;-85
2022/08/02 02:22:46;;;;;;;6.70;2.20;;;;;;;;;;5015734;28;20050;-85
2022/08/02 02:25:17;;;;;;;1.95;1.88;;;;;;;;;;5014526;28;20124;-84
2022/08/02 02:27:49;;;;;;;2.88;2.10;;;;;;;;;;5015979;28;20507;-85
2022/08/02 02:30:17;;;;;;;2.05;1.85;;;;;;;;;;5014759;28;20472;-84
2022/08/02 02:32:45;;;;;;;5.80;2.38;;;;;;;;;;5014772;28;20046;-85
2022/08/02 02:35:13;;;;;;;2.25;2.15;;;;;;;;;;5014457;28;20046;-85
2022/08/02 02:37:43;;;;;;;2.40;2.30;;;;;;;;;;5015482;28;20104;-85
2022/08/02 02:40:11;;;;;;;2.38;2.28;;;;;;;;;;5015329;28;20050;-84
2022/08/02 02:42:39;;;;;;;2.47;2.38;;;;;;;;;;5015269;28;20467;-86
2022/08/02 02:45:08;;;;;;;2.72;2.17;;;;;;;;;;5017249;28;20050;-84
2022/08/02 02:47:37;;;;;;;3.03;2.42;;;;;;;;;;5020485;28;20046;-85
2022/08/02 02:50:07;;;;;;;2.95;2.60;;;;;;;;;;5019418;28;20411;-85
2022/08/02 02:52:35;;;;;;;2.65;2.47;;;;;;;;;;5018509;28;20049;-84
2022/08/02 02:55:03;;;;;;;4.50;2.90;;;;;;;;;;5018339;28;20076;-85
2022/08/02 02:57:31;;;;;;;3.25;3.00;;;;;;;;;;5019469;28;20081;-85
2022/08/02 02:59:58;;;;;;;2.70;2.60;;;;;;;;;;5018060;28;20471;-85
2022/08/02 03:02:26;;;;;;;3.00;2.90;;;;;;;;;;5019580;28;20486;-85
2022/08/02 03:04:54;;;;;;;2.85;2.65;;;;;;;;;;5019157;28;20157;-85
2022/08/02 03:07:24;;;;;;;2.90;2.70;;;;;;;;;;5018521;28;20046;-85
2022/08/02 03:09:52;;;;;;;3.00;2.80;;;;;;;;;;5018989;28;20416;-85
2022/08/02 03:12:21;;;;;;;3.25;3.03;;;;;;;;;;5019595;28;20077;-85
2022/08/02 03:14:57;;;;;;;3.10;2.90;;;;;;;;;;5017648;28;20471;-84
2022/08/02 03:17:25;;;;;;;5.00;3.05;;;;;;;;;;5018688;28;20049;-86
2022/08/02 03:19:52;;;;;;;2.80;2.70;;;;;;;;;;5018693;28;20511;-86
2022/08/02 03:22:19;;;;;;;3.22;3.03;;;;;;;;;;5018731;28;20558;-85
2022/08/02 03:24:46;;;;;;;2.97;2.88;;;;;;;;;;5019973;28;20049;-84
2022/08/02 03:27:14;;;;;;;3.53;3.33;;;;;;;;;;5017738;28;20088;-85
2022/08/02 03:29:41;;;;;;;3.70;3.40;;;;;;;;;;5017641;28;20077;-85
2022/08/02 03:32:08;;;;;;;3.22;3.13;;;;;;;;;;5016420;28;20096;-84
2022/08/02 03:34:36;;;;;;;4.00;3.75;;;;;;;;;;5017771;28;20057;-87
2022/08/02 03:37:03;;;;;;;3.65;3.45;;;;;;;;;;5017099;28;20571;-85
2022/08/02 03:39:32;;;;;;;3.47;3.28;;;;;;;;;;5016987;28;20443;-85
2022/08/02 03:41:59;;;;;;;5.47;3.80;;;;;;;;;;5016355;28;20104;-86
2022/08/02 03:44:27;;;;;;;3.85;3.55;;;;;;;;;;5016559;28;20050;-85
2022/08/02 03:46:54;;;;;;;4.78;3.90;;;;;;;;;;5016698;28;20081;-85
2022/08/02 03:49:21;;;;;;;5.25;3.88;;;;;;;;;;5017008;28;20557;-85
2022/08/02 03:51:49;;;;;;;3.92;3.60;;;;;;;;;;5016267;28;20173;-86
2022/08/02 03:54:17;;;;;;;6.03;5.47;;;;;;;;;;5016966;28;20081;-83
2022/08/02 03:56:44;;;;;;;5.05;4.65;;;;;;;;;;5014995;28;20046;-83
2022/08/02 03:59:12;;;;;;;5.55;3.75;;;;;;;;;;5015835;28;20061;-85
2022/08/02 04:01:40;;;;;;;3.65;3.33;;;;;;;;;;5015792;28;20073;-84
2022/08/02 04:04:07;;;;;;;3.88;3.63;;;;;;;;;;5015767;28;20054;-84
2022/08/02 04:06:35;;;;;;;3.92;3.72;;;;;;;;;;5015701;28;20490;-84
2022/08/02 04:09:08;;;;;;;5.15;4.75;;;;;;;;;;5015246;28;20056;-85
2022/08/02 04:11:36;;;;;;;4.28;3.38;;;;;;;;;;5016627;28;20057;-86
2022/08/02 04:14:08;;;;;;;9.68;3.90;;;;;;;;;;5015490;28;20060;-84
2022/08/02 04:16:40;;;;;;;11.15;4.07;;;;;;;;;;5015914;28;20113;-84
2022/08/02 04:19:08;;;;;;;16.73;5.30;;;;;;;;;;5017235;28;20050;-85
2022/08/02 04:21:41;;;;;;;14.50;4.85;;;;;;;;;;5016393;28;20046;-84
2022/08/02 04:24:19;;;;;;;6.78;4.88;;;;;;;;;;5015734;28;20574;-85
2022/08/02 04:26:50;;;;;;;16.83;6.00;;;;;;;;;;5016413;28;20120;-86
2022/08/02 04:29:19;;;;;;;9.48;5.65;;;;;;;;;;5016083;28;20061;-86
2022/08/02 04:31:46;;;;;;;14.57;5.90;;;;;;;;;;5016172;28;20050;-84
2022/08/02 04:34:14;;;;;;;7.85;4.40;;;;;;;;;;5015817;28;20042;-85
2022/08/02 04:36:42;;;;;;;5.68;5.18;;;;;;;;;;5015765;28;20393;-85
2022/08/02 04:39:09;;;;;;;7.40;4.50;;;;;;;;;;5016658;28;20132;-85
2022/08/02 04:41:37;;;;;;;4.03;3.72;;;;;;;;;;5017545;28;20050;-86
2022/08/02 04:44:10;;;;;;;5.38;5.03;;;;;;;;;;5015827;28;20057;-85
2022/08/02 04:46:38;;;;;;;4.90;4.50;;;;;;;;;;5014721;28;20069;-85
2022/08/02 04:49:05;;;;;;;8.10;4.82;;;;;;;;;;5014973;28;20054;-85
2022/08/02 04:51:36;;;;;;;5.72;4.00;;;;;;;;;;5014819;28;20054;-85
2022/08/02 04:54:05;;;;;;;7.18;5.32;;;;;;;;;;5014524;28;20050;-85
2022/08/02 04:56:36;;;;;;;15.32;13.73;;;;;;;;;;5014721;28;20419;-85
2022/08/02 04:59:04;;;;;;;9.52;8.55;;;;;;;;;;5013663;28;20060;-88
2022/08/02 05:01:31;;;;;;;15.20;13.80;;;;;;;;;;5014497;28;20053;-88
2022/08/02 05:03:58;;;;;;;7.30;6.80;;;;;;;;;;5013076;28;20492;-88
2022/08/02 05:06:26;;;;;;;6.50;6.10;;;;;;;;;;5013024;28;20085;-88
2022/08/02 05:08:53;;;;;;;3.95;3.75;;;;;;;;;;5012790;28;20058;-87
2022/08/02 05:11:21;;;;;;;3.15;2.88;;;;;;;;;;5012964;28;20121;-87
2022/08/02 05:14:00;;;;;;;3.28;2.92;;;;;;;;;;5014212;28;20143;-87
2022/08/02 05:16:27;;;;;;;3.75;3.53;;;;;;;;;;5013179;28;20133;-87
2022/08/02 05:18:57;;;;;;;4.40;3.67;;;;;;;;;;5012835;28;20454;-87
2022/08/02 05:21:24;;;;;;;2.92;2.50;;;;;;;;;;5014004;28;20062;-87
2022/08/02 05:23:51;;;;;;;3.17;2.10;;;;;;;;;;5014045;28;20137;-87
2022/08/02 05:26:19;;;;;;;2.13;2.00;;;;;;;;;;5012819;28;20396;-87
2022/08/02 05:28:46;;;;;;;1.85;1.75;;;;;;;;;;5012766;28;20085;-87
2022/08/02 05:31:13;;;;;;;1.80;1.70;;;;;;;;;;5012706;28;20085;-88
2022/08/02 05:33:41;;;;;;;2.60;1.50;;;;;;;;;;5012833;28;20100;-87
2022/08/02 05:36:08;;;;;;;3.03;1.63;;;;;;;;;;5012542;28;20081;-87
2022/08/02 05:38:36;;;;;;;1.73;1.63;;;;;;;;;;5012891;28;20132;-88
2022/08/02 05:41:04;;;;;;;1.65;1.55;;;;;;;;;;5012526;28;20087;-88
2022/08/02 05:43:31;;;;;;;1.20;1.20;;;;;;;;;;5012801;28;20403;-88
2022/08/02 05:45:59;;;;;;;1.58;1.48;;;;;;;;;;5012723;28;20046;-87
2022/08/02 05:48:26;;;;;;;1.85;1.75;;;;;;;;;;5012528;28;20082;-88
2022/08/02 05:51:02;;;;;;;3.13;1.52;;;;;;;;;;5012376;28;20053;-88
2022/08/02 05:53:44;;;;;;;1.55;1.50;;;;;;;;;;5012581;28;20041;-87
2022/08/02 05:56:13;;;;;;;1.67;1.58;;;;;;;;;;5012293;28;20057;-88
2022/08/02 05:58:48;;;;;;;1.63;1.52;;;;;;;;;;5014529;28;20046;-88
2022/08/02 06:01:22;;;;;;;2.50;1.60;;;;;;;;;;5014339;28;20101;-88
2022/08/02 06:03:51;;;;;;;1.80;1.70;;;;;;;;;;5012384;28;20065;-88
2022/08/02 06:06:22;;;;;;;1.73;1.63;;;;;;;;;;5012249;28;20050;-87
2022/08/02 06:08:52;;;;;;;10.52;2.30;;;;;;;;;;5013424;28;20081;-87
2022/08/02 06:11:21;;;;;;;7.13;1.77;;;;;;;;;;5011861;28;20081;-86
2022/08/02 06:13:48;;;;;;;26.27;3.20;;;;;;;;;;5013562;28;20141;-88
2022/08/02 06:16:16;;;;;;;33.78;3.92;;;;;;;;;;5013083;28;20123;-88
2022/08/02 06:18:59;;;;;;;31.02;3.45;;;;;;;;;;5011856;28;20088;-88
2022/08/02 06:21:27;;;;;;;19.42;2.90;;;;;;;;;;5012175;28;20046;-87
2022/08/02 06:24:17;;;;;;;18.50;2.30;;;;;;;;;;5012347;28;20060;-87
2022/08/02 06:26:44;;;;;;;15.43;3.03;;;;;;;;;;5012171;28;20111;-88
2022/08/02 06:29:12;;;;;;;8.13;2.20;;;;;;;;;;5012331;28;20081;-88
2022/08/02 06:31:41;;;;;;;4.80;1.90;;;;;;;;;;5012169;28;20053;-86
2022/08/02 06:34:11;;;;;;;5.03;1.98;;;;;;;;;;5012099;28;20077;-88
2022/08/02 06:36:56;;;;;;;2.00;1.42;;;;;;;;;;5012004;28;20076;-88
2022/08/02 06:39:28;;;;;;;2.30;1.40;;;;;;;;;;5012198;28;20069;-87
2022/08/02 06:41:57;;;;;;;2.55;1.85;;;;;;;;;;5011703;28;20503;-88
2022/08/02 06:44:25;;;;;;;1.70;1.60;;;;;;;;;;5011801;28;20057;-87
2022/08/02 06:47:12;;;;;;;1.38;1.27;;;;;;;;;;5011708;28;20057;-89
2022/08/02 06:49:40;;;;;;;1.88;1.50;;;;;;;;;;5011976;28;20069;-88
2022/08/02 06:52:21;;;;;;;1.60;1.50;;;;;;;;;;5012038;28;20053;-88
2022/08/02 06:54:53;;;;;;;;;;;;;;;;;;5013419;28;20252;-87
2022/08/02 06:57:21;;;;;;;1.75;1.65;;;;;;;;;;5012016;28;20353;-85
2022/08/02 06:59:48;;;;;;;1.65;1.48;;;;;;;;;;5011888;28;20100;-88
2022/08/02 07:02:15;;;;;;;5.13;1.70;;;;;;;;;;5012244;28;20058;-90
2022/08/02 07:04:42;;;;;;;2.45;1.50;;;;;;;;;;5011985;28;20081;-88
2022/08/02 07:07:09;;;;;;;2.85;1.70;;;;;;;;;;5013043;28;20089;-88
2022/08/02 07:09:36;;;;;;;5.03;1.30;;;;;;;;;;5011497;28;20141;-88
2022/08/02 07:12:04;;;;;;;3.33;1.23;;;;;;;;;;5011619;28;20054;-88
2022/08/02 07:14:31;;;;;;;2.60;1.63;;;;;;;;;;5012718;28;20088;-87
2022/08/02 07:17:01;;;;;;;2.88;1.45;;;;;;;;;;5012948;28;20072;-86
2022/08/02 07:19:28;;;;;;;1.83;1.40;;;;;;;;;;5012803;28;20085;-85
2022/08/02 07:22:04;;;;;;;2.80;1.50;;;;;;;;;;5012838;28;20507;-86
2022/08/02 07:24:31;;;;;;;2.05;1.60;;;;;;;;;;5011985;28;20092;-86
2022/08/02 07:26:59;;;;;;;1.83;1.73;;;;;;;;;;5012926;28;20480;-84
2022/08/02 07:29:41;;;;;;;6.43;1.40;;;;;;;;;;5013127;28;20053;-86
2022/08/02 07:32:15;;;;;;;5.22;1.80;;;;;;;;;;5015699;28;20080;-87
2022/08/02 07:34:42;;;;;;;1.95;1.27;;;;;;;;;;5017422;28;20054;-88
2022/08/02 07:37:20;;;;;;;3.47;1.70;;;;;;;;;;5018565;28;20503;-86
2022/08/02 07:40:08;;;;;;;3.78;1.17;;;;;;;;;;5003511;28;20099;-85
2022/08/02 07:42:40;;;;;;;3.83;1.60;;;;;;;;;;5017123;28;20050;-86
2022/08/02 07:45:07;;;;;;;2.42;1.42;;;;;;;;;;5017193;28;20081;-85
2022/08/02 07:47:38;;;;;;;2.50;1.48;;;;;;;;;;5017189;28;20058;-86
2022/08/02 07:50:06;;;;;;;3.53;1.40;;;;;;;;;;5016314;28;20049;-84
2022/08/02 07:52:33;;;;;;;1.90;1.40;;;;;;;;;;5015709;28;20096;-86
2022/08/02 07:55:00;;;;;;;1.38;1.10;;;;;;;;;;5015911;28;20100;-85
2022/08/02 07:57:27;;;;;;;2.30;1.10;;;;;;;;;;5017275;28;20475;-86
2022/08/02 07:59:55;;;;;;;1.75;1.35;;;;;;;;;;5016820;28;20474;-85
2022/08/02 08:02:25;;;;;;;1.88;1.05;;;;;;;;;;5016529;28;20053;-86
2022/08/02 08:04:52;;;;;;;1.00;1.00;;;;;;;;;;5016261;28;20492;-86
2022/08/02 08:07:20;;;;;;;1.00;0.90;;;;;;;;;;5016269;28;20050;-87
2022/08/02 08:09:49;;;;;;;1.10;0.95;;;;;;;;;;5015388;28;20097;-85
2022/08/02 08:12:22;;;;;;;1.17;0.80;;;;;;;;;;5018501;28;20046;-82
2022/08/02 08:14:49;;;;;;;2.97;1.05;;;;;;;;;;5019008;28;20056;-83
2022/08/02 08:17:16;;;;;;;1.58;1.08;;;;;;;;;;5018525;28;20100;-85
2022/08/02 08:19:43;;;;;;;3.25;1.15;;;;;;;;;;5016703;28;20046;-83
2022/08/02 08:22:18;;;;;;;2.00;0.88;;;;;;;;;;5018159;28;20060;-86
2022/08/02 08:24:46;;;;;;;4.13;0.80;;;;;;;;;;5019360;28;20100;-84
2022/08/02 08:27:14;;;;;;;2.10;1.02;;;;;;;;;;5018440;28;20112;-84
2022/08/02 08:29:42;;;;;;;1.75;0.90;;;;;;;;;;5018305;28;20069;-85
2022/08/02 08:32:09;;;;;;;0.90;0.90;;;;;;;;;;5017816;28;20076;-85
2022/08/02 08:34:43;;;;;;;5.57;1.40;;;;;;;;;;5022453;28;20050;-85
2022/08/02 08:37:10;;;;;;;2.22;0.80;;;;;;;;;;5015010;28;20112;-84
2022/08/02 08:39:44;;;;;;;2.13;1.23;;;;;;;;;;5015399;28;20050;-81
2022/08/02 08:42:26;;;;;;;2.78;0.70;;;;;;;;;;5013081;28;20057;-84
2022/08/02 08:44:56;;;;;;;1.88;0.88;;;;;;;;;;5014105;28;20050;-84
2022/08/02 08:47:43;;;;;;;0.85;0.70;;;;;;;;;;5013573;28;20089;-86
2022/08/02 08:50:13;;;;;;;0.70;0.70;;;;;;;;;;5013622;28;20112;-84
2022/08/02 08:52:53;;;;;;;0.80;0.80;;;;;;;;;;5013141;28;20129;-84
2022/08/02 08:55:23;;;;;;;1.75;0.80;;;;;;;;;;5013496;28;20042;-83
2022/08/02 08:57:53;;;;;;;0.93;0.90;;;;;;;;;;5014158;28;20048;-84
2022/08/02 09:00:20;;;;;;;1.85;0.80;;;;;;;;;;5013633;28;20066;-86
2022/08/02 09:02:47;;;;;;;2.80;1.00;;;;;;;;;;5013536;28;20046;-84
2022/08/02 09:05:15;;;;;;;2.28;0.85;;;;;;;;;;5013637;28;20049;-83
2022/08/02 09:07:43;;;;;;;1.65;1.05;;;;;;;;;;5013312;28;20104;-85
2022/08/02 09:10:29;;;;;;;1.60;0.75;;;;;;;;;;5013022;28;20085;-82
2022/08/02 09:13:06;;;;;;;3.25;0.90;;;;;;;;;;5014543;28;20134;-85
2022/08/02 09:15:55;;;;;;;4.18;1.15;;;;;;;;;;5013569;28;20393;-82
2022/08/02 09:18:32;;;;;;;1.65;0.82;;;;;;;;;;5013168;28;20042;-85
2022/08/02 09:21:01;;;;;;;0.85;0.82;;;;;;;;;;5013436;28;20492;-84
2022/08/02 09:23:34;;;;;;;1.70;1.10;;;;;;;;;;5014536;28;20049;-83
2022/08/02 09:26:03;;;;;;;1.92;1.13;;;;;;;;;;5015902;28;20078;-85
2022/08/02 09:28:35;;;;;;;2.65;1.10;;;;;;;;;;5017670;28;20055;-83
2022/08/02 09:31:04;;;;;;;0.85;0.82;;;;;;;;;;5015923;28;20081;-83
2022/08/02 09:33:32;;;;;;;1.42;1.00;;;;;;;;;;5017090;28;20046;-84
2022/08/02 09:36:04;;;;;;;3.97;0.70;;;;;;;;;;5018628;28;20087;-84
2022/08/02 09:38:35;;;;;;;1.05;1.00;;;;;;;;;;5015930;28;20050;-85
2022/08/02 09:41:03;;;;;;;1.75;1.05;;;;;;;;;;5018362;28;20057;-83
2022/08/02 09:43:43;;;;;;;2.58;0.90;;;;;;;;;;5019099;28;20081;-84
2022/08/02 09:46:32;;;;;;;1.02;1.02;;;;;;;;;;5021131;28;20376;-83
2022/08/02 09:49:00;;;;;;;1.08;0.98;;;;;;;;;;5022296;28;20454;-85
2022/08/02 09:51:36;;;;;;;1.45;0.93;;;;;;;;;;5018310;28;20500;-84
2022/08/02 09:54:05;;;;;;;1.10;1.00;;;;;;;;;;5016619;28;20057;-82
2022/08/02 09:56:41;;;;;;;1.15;1.00;;;;;;;;;;5014170;28;20164;-84
2022/08/02 09:59:08;;;;;;;1.23;1.13;;;;;;;;;;5013315;28;20134;-83
2022/08/02 10:01:37;;;;;;;2.67;1.10;;;;;;;;;;5013114;28;20049;-86
2022/08/02 10:04:06;;;;;;;1.17;1.08;;;;;;;;;;5013501;28;20504;-82
2022/08/02 10:06:34;;;;;;;2.75;1.27;;;;;;;;;;5014829;28;20061;-83
2022/08/02 10:09:01;;;;;;;0.70;0.70;;;;;;;;;;5012928;28;20073;-83
2022/08/02 10:11:29;;;;;;;2.75;1.00;;;;;;;;;;5013376;28;20089;-83
2022/08/02 10:13:56;;;;;;;2.17;1.10;;;;;;;;;;5012547;28;20064;-85
2022/08/02 10:16:23;;;;;;;2.25;0.80;;;;;;;;;;5012288;28;20393;-84
2022/08/02 10:18:55;;;;;;;2.63;0.68;;;;;;;;;;5011959;28;20097;-84
2022/08/02 10:21:29;;;;;;;1.05;0.77;;;;;;;;;;5014775;28;20563;-83
2022/08/02 10:24:01;;;;;;;0.93;0.60;;;;;;;;;;5012549;28;20058;-84
2022/08/02 10:26:29;;;;;;;0.93;0.93;;;;;;;;;;5013908;28;20112;-84
2022/08/02 10:28:56;;;;;;;2.70;0.93;;;;;;;;;;5013143;28;20050;-84
2022/08/02 10:31:36;;;;;;;0.80;0.80;;;;;;;;;;5012314;28;20054;-84
2022/08/02 10:34:06;;;;;;;1.95;1.00;;;;;;;;;;5012469;28;20397;-83
2022/08/02 10:36:35;;;;;;;1.45;1.20;;;;;;;;;;5014356;28;20113;-82
2022/08/02 10:39:02;;;;;;;2.15;1.08;;;;;;;;;;5016386;28;20068;-83
2022/08/02 10:41:43;;;;;;;4.43;1.13;;;;;;;;;;5015562;28;20484;-83
2022/08/02 10:44:27;;;;;;;0.93;0.55;;;;;;;;;;5015721;28;20088;-85
2022/08/02 10:47:13;;;;;;;1.27;0.60;;;;;;;;;;5012706;28;20046;-85
2022/08/02 10:49:54;;;;;;;0.70;0.65;;;;;;;;;;5013090;28;20046;-86
2022/08/02 10:52:23;;;;;;;0.60;0.60;;;;;;;;;;5012098;28;20490;-85
2022/08/02 10:54:54;;;;;;;1.70;0.77;;;;;;;;;;5016625;28;20046;-84
2022/08/02 10:57:27;;;;;;;1.63;1.10;;;;;;;;;;5012602;28;20100;-85
2022/08/02 10:59:56;;;;;;;5.60;1.10;;;;;;;;;;5018075;28;20293;-85
2022/08/02 11:02:37;;;;;;;5.57;0.80;;;;;;;;;;5017107;28;20050;-85
2022/08/02 11:05:14;;;;;;;0.80;0.52;;;;;;;;;;5015323;28;20108;-85
2022/08/02 11:07:42;;;;;;;7.75;1.25;;;;;;;;;;5020298;28;20054;-83
2022/08/02 11:10:36;;;;;;;0.68;0.50;;;;;;;;;;5023558;28;20137;-84
2022/08/02 11:13:05;;;;;;;2.03;0.68;;;;;;;;;;5015771;28;20393;-80
2022/08/02 11:15:51;;;;;;;0.90;0.85;;;;;;;;;;5016119;28;20077;-86
2022/08/02 11:18:18;;;;;;;1.55;0.65;;;;;;;;;;5015399;28;20049;-84
2022/08/02 11:20:45;;;;;;;1.30;0.70;;;;;;;;;;5015870;28;20084;-82
2022/08/02 11:23:31;;;;;;;0.55;0.43;;;;;;;;;;5015462;28;20476;-83
2022/08/02 11:26:30;;;;;;;1.20;0.47;;;;;;;;;;5015704;28;20065;-85
2022/08/02 11:28:58;;;;;;;2.95;0.80;;;;;;;;;;5015443;28;20058;-83
2022/08/02 11:31:25;;;;;;;1.75;0.63;;;;;;;;;;5015862;28;20085;-84
2022/08/02 11:33:52;;;;;;;1.42;0.40;;;;;;;;;;5015732;28;20061;-86
2022/08/02 11:36:19;;;;;;;1.20;0.80;;;;;;;;;;5016113;28;20046;-83
2022/08/02 11:38:48;;;;;;;0.65;0.65;;;;;;;;;;5016663;28;20141;-84
2022/08/02 11:41:20;;;;;;;1.55;0.60;;;;;;;;;;5016403;28;20050;-84
2022/08/02 11:44:07;;;;;;;2.15;0.60;;;;;;;;;;5015905;28;20057;-84
2022/08/02 11:46:34;;;;;;;0.82;0.60;;;;;;;;;;5017191;28;20074;-84
2022/08/02 11:49:15;;;;;;;2.33;0.70;;;;;;;;;;5016772;28;20081;-85
2022/08/02 11:52:05;;;;;;;0.68;0.65;;;;;;;;;;5016382;28;20141;-84
2022/08/02 11:54:33;;;;;;;1.27;0.70;;;;;;;;;;5017693;28;20042;-84
2022/08/02 11:57:18;;;;;;;0.50;0.50;;;;;;;;;;5017463;28;20089;-83
2022/08/02 11:59:48;;;;;;;1.95;0.57;;;;;;;;;;5017616;28;20049;-84
2022/08/02 12:02:16;;;;;;;0.57;0.40;;;;;;;;;;5016707;28;20484;-84
2022/08/02 12:04:51;;;;;;;1.40;0.70;;;;;;;;;;5018723;28;20074;-85
2022/08/02 12:07:18;;;;;;;1.13;0.50;;;;;;;;;;5017024;28;20049;-85
2022/08/02 12:10:11;;;;;;;0.60;0.60;;;;;;;;;;5015735;28;20108;-82
2022/08/02 12:12:55;;;;;;;0.60;0.60;;;;;;;;;;5017284;28;20381;-83
2022/08/02 12:15:29;;;;;;;0.45;0.45;;;;;;;;;;5020220;28;20085;-84
2022/08/02 12:20:43;;;;;;;0.60;0.60;;;;;;;;;;5018261;28;20041;-85
2022/08/02 12:23:10;;;;;;;0.60;0.60;;;;;;;;;;5016711;28;20108;-85
2022/08/02 12:25:37;;;;;;;1.10;0.50;;;;;;;;;;5017128;28;20046;-85
2022/08/02 12:28:24;;;;;;;4.60;0.85;;;;;;;;;;5017346;28;20053;-85
2022/08/02 12:30:56;;;;;;;1.80;0.63;;;;;;;;;;5014193;28;20057;-85
2022/08/02 12:33:25;;;;;;;0.60;0.60;;;;;;;;;;5017894;28;20072;-87
2022/08/02 12:35:52;;;;;;;0.60;0.60;;;;;;;;;;5016218;28;20065;-86
2022/08/02 12:38:20;;;;;;;0.75;0.70;;;;;;;;;;5015188;28;20100;-86
2022/08/02 12:40:47;;;;;;;0.55;0.50;;;;;;;;;;5014982;28;20080;-88
2022/08/02 12:43:22;;;;;;;2.50;0.80;;;;;;;;;;5017212;28;20538;-88
2022/08/02 12:45:54;;;;;;;0.32;0.32;;;;;;;;;;5016058;28;20081;-87
2022/08/02 12:48:37;;;;;;;0.60;0.60;;;;;;;;;;5017194;28;20491;-85
2022/08/02 12:51:33;;;;;;;0.43;0.43;;;;;;;;;;5015419;28;20057;-86
2022/08/02 12:54:22;;;;;;;0.40;0.40;;;;;;;;;;5016897;28;20133;-86
2022/08/02 12:57:09;;;;;;;1.33;0.60;;;;;;;;;;5014550;28;20050;-86
2022/08/02 12:59:38;;;;;;;0.90;0.70;;;;;;;;;;5015064;28;20046;-84
2022/08/02 13:02:06;;;;;;;0.50;0.50;;;;;;;;;;5017382;28;20088;-84
2022/08/02 13:04:34;;;;;;;0.68;0.68;;;;;;;;;;5016971;28;20137;-89
2022/08/02 13:07:01;;;;;;;2.05;0.50;;;;;;;;;;5017976;28;20107;-86
2022/08/02 13:09:35;;;;;;;0.88;0.88;;;;;;;;;;5016127;28;20417;-87
2022/08/02 13:12:02;;;;;;;1.40;1.10;;;;;;;;;;5015408;28;20495;-84
2022/08/02 13:14:29;;;;;;;3.00;1.27;;;;;;;;;;5017332;28;20052;-86
2022/08/02 13:16:56;;;;;;;1.08;0.73;;;;;;;;;;5015405;28;20057;-88
2022/08/02 13:19:24;;;;;;;0.52;0.52;;;;;;;;;;5013903;28;20482;-87
2022/08/02 13:21:57;;;;;;;0.60;0.60;;;;;;;;;;5014056;28;20128;-85
2022/08/02 13:24:38;;;;;;;1.95;0.50;;;;;;;;;;5014242;28;20057;-85
2022/08/02 13:27:22;;;;;;;0.60;0.60;;;;;;;;;;5020397;28;20132;-86
2022/08/02 13:29:50;;;;;;;0.55;0.55;;;;;;;;;;5016382;28;20058;-84
2022/08/02 13:32:17;;;;;;;0.60;0.52;;;;;;;;;;5014122;28;20049;-86
2022/08/02 13:34:45;;;;;;;0.95;0.60;;;;;;;;;;5014586;28;20050;-84
2022/08/02 13:37:12;;;;;;;3.05;0.80;;;;;;;;;;5015060;28;20124;-85
2022/08/02 13:39:40;;;;;;;0.50;0.50;;;;;;;;;;5015591;28;20546;-85
2022/08/02 13:42:07;;;;;;;2.90;1.23;;;;;;;;;;5016341;28;20049;-84
2022/08/02 13:44:43;;;;;;;0.90;0.80;;;;;;;;;;5019893;28;20081;-84
2022/08/02 13:47:10;;;;;;;2.00;0.60;;;;;;;;;;5015111;28;20069;-83
2022/08/02 13:49:37;;;;;;;2.83;0.68;;;;;;;;;;5013908;28;20053;-84
2022/08/02 13:52:17;;;;;;;0.60;0.60;;;;;;;;;;5013434;28;20447;-84
2022/08/02 13:54:45;;;;;;;0.40;0.40;;;;;;;;;;5013080;28;20132;-85
2022/08/02 13:57:12;;;;;;;0.80;0.60;;;;;;;;;;5014285;28;20104;-87
2022/08/02 13:59:39;;;;;;;0.57;0.57;;;;;;;;;;5014358;28;20096;-86
2022/08/02 14:02:24;;;;;;;1.05;0.50;;;;;;;;;;5014729;28;20050;-86
2022/08/02 14:04:51;;;;;;;3.95;0.50;;;;;;;;;;5014408;28;20089;-85
2022/08/02 14:07:19;;;;;;;1.65;0.40;;;;;;;;;;5016388;28;20060;-86
2022/08/02 14:09:46;;;;;;;2.90;0.70;;;;;;;;;;5013648;28;20057;-86
2022/08/02 14:12:13;;;;;;;2.10;0.55;;;;;;;;;;5015084;28;20104;-86
2022/08/02 14:14:41;;;;;;;0.95;0.40;;;;;;;;;;5016112;28;20510;-87
2022/08/02 14:17:09;;;;;;;0.68;0.50;;;;;;;;;;5013434;28;20042;-85
2022/08/02 14:19:37;;;;;;;2.15;0.60;;;;;;;;;;5013355;28;20415;-86
2022/08/02 14:22:06;;;;;;;0.73;0.70;;;;;;;;;;5015122;28;20074;-86
2022/08/02 14:24:38;;;;;;;2.25;0.60;;;;;;;;;;5014489;28;20057;-85
2022/08/02 14:27:05;;;;;;;1.67;0.60;;;;;;;;;;5013915;28;20053;-86
2022/08/02 14:29:32;;;;;;;3.40;0.40;;;;;;;;;;5017905;28;20411;-86
2022/08/02 14:32:00;;;;;;;2.75;0.57;;;;;;;;;;5016739;28;20050;-84
2022/08/02 14:34:27;;;;;;;0.85;0.50;;;;;;;;;;5015478;28;20046;-84
2022/08/02 14:36:55;;;;;;;2.58;0.80;;;;;;;;;;5014349;28;20092;-87
2022/08/02 14:39:22;;;;;;;0.73;0.50;;;;;;;;;;5019118;28;20081;-86
2022/08/02 14:41:49;;;;;;;0.70;0.70;;;;;;;;;;5023499;28;20080;-86
2022/08/02 14:44:26;;;;;;;1.42;0.40;;;;;;;;;;5018855;28;20474;-86
2022/08/02 14:46:54;;;;;;;2.30;0.60;;;;;;;;;;5016931;28;20166;-86
2022/08/02 14:49:21;;;;;;;0.85;0.60;;;;;;;;;;5020143;28;20054;-86
2022/08/02 14:51:52;;;;;;;1.20;0.30;;;;;;;;;;5021781;28;20053;-85
2022/08/02 14:54:19;;;;;;;0.50;0.50;;;;;;;;;;5018568;28;20053;-85
2022/08/02 14:57:00;;;;;;;0.70;0.60;;;;;;;;;;5021226;28;20068;-85
2022/08/02 14:59:28;;;;;;;3.40;0.85;;;;;;;;;;5017746;28;20108;-86
2022/08/02 15:01:55;;;;;;;2.78;0.60;;;;;;;;;;5019136;28;20093;-86
2022/08/02 15:04:23;;;;;;;0.50;0.50;;;;;;;;;;5019007;28;20053;-85
2022/08/02 15:06:50;;;;;;;0.50;0.50;;;;;;;;;;5016881;28;20482;-87